Latest Weather Observations for Neptune Island

IDS60801

Issued at 11:01 pm CST Sunday 30 August 2015 (issued every 30 minutes, with the page automatically refreshed every 10 minutes)

About weather observations | Map of weather stations | Latest weather observations for SA | Other Formats
Station Details ID: 018115 Name: NEPTUNE ISLAND Lat: -35.34 Lon: 136.12 Height: 32.0 m
Data from the previous 72 hours. | See also: Recent months at Neptune Island
Date/Time
CST
Temp
°C
App
Temp
°C
Dew
Point
Rel
Hum
%
Delta-T
°C
Wind Press
QNH
hPa
Press
MSL
hPa
Rain
since 9 am
mm
Dir
 
Spd
km/h
Gust
km/h
Spd
kts
Gust
kts
30/11:00pm 12.9 7.8 9.2 78 1.9 ENE 26 28 14 15 1021.6 1021.6 0.0
30/10:30pm 12.7 7.5 9.0 78 1.9 ENE 26 30 14 16 1021.7 1021.7 0.0
30/10:00pm 12.7 7.1 8.8 77 2.0 E 28 32 15 17 1021.8 1021.8 0.0
30/09:30pm 12.6 7.0 8.7 77 1.9 E 28 33 15 18 1021.6 1021.6 0.0
30/09:00pm 12.5 6.5 8.8 78 1.8 E 30 35 16 19 1021.4 1021.4 0.0
30/08:30pm 12.5 6.4 8.2 75 2.1 E 30 33 16 18 1021.3 1021.3 0.0
30/08:00pm 12.4 6.7 8.5 77 1.9 E 28 30 15 16 1021.4 1021.4 0.0
30/07:30pm 12.2 7.3 8.5 78 1.8 E 24 30 13 16 1021.4 1021.4 0.0
30/07:00pm 12.1 7.2 8.4 78 1.8 E 24 28 13 15 1021.5 1021.5 0.0
30/06:30pm 12.2 8.1 8.7 79 1.7 E 20 26 11 14 1021.6 1021.6 0.0
30/06:00pm 12.3 8.0 8.0 75 2.1 E 20 24 11 13 1021.7 1021.7 0.0
30/05:30pm 12.7 9.0 8.0 73 2.3 E 17 20 9 11 1021.6 1021.6 0.0
30/05:00pm 13.0 9.1 8.5 74 2.2 E 19 22 10 12 1021.5 1021.5 0.0
30/04:30pm 13.3 9.7 8.4 72 2.4 ENE 17 20 9 11 1021.6 1021.6 0.0
30/04:00pm 13.4 9.8 8.5 72 2.5 ENE 17 20 9 11 1021.9 1021.9 0.0
30/03:30pm 13.5 9.6 8.6 72 2.4 ENE 19 22 10 12 1022.1 1022.1 0.0
30/03:00pm 14.1 10.6 8.9 71 2.6 ENE 17 22 9 12 1022.2 1022.2 0.0
30/02:30pm 14.6 11.2 9.0 69 2.8 NE 17 22 9 12 1022.4 1022.4 0.0
30/02:00pm 14.7 11.5 8.6 67 3.1 NE 15 20 8 11 1022.5 1022.5 0.0
30/01:30pm 14.5 11.0 8.7 68 2.9 NE 17 24 9 13 1022.8 1022.8 0.0
30/01:00pm 14.3 10.4 8.7 69 2.8 NE 19 24 10 13 1023.3 1023.3 0.0
30/12:30pm 14.3 10.3 8.3 67 3.0 NE 19 26 10 14 1023.8 1023.8 0.0
30/12:00pm 14.6 10.7 8.8 68 2.9 NE 19 24 10 13 1024.2 1024.2 0.0
30/11:30am 14.4 10.6 9.2 71 2.6 NE 19 26 10 14 1024.3 1024.3 0.0
30/11:00am 13.8 9.8 8.2 69 2.8 NE 19 28 10 15 1024.4 1024.4 0.0
30/10:30am 13.4 9.1 8.0 70 2.7 NE 20 28 11 15 1024.6 1024.6 0.0
30/10:00am 13.3 9.1 8.4 72 2.4 NE 20 28 11 15 1024.8 1024.8 0.0
30/09:30am 13.0 8.5 8.7 75 2.1 NE 22 32 12 17 1024.9 1024.9 0.0
30/09:00am 12.6 8.4 8.1 74 2.2 NE 20 28 11 15 1025.1 1025.1 0.0
30/08:30am 12.3 7.5 7.2 71 2.4 NE 22 32 12 17 1024.9 1024.9 0.0
30/08:00am 11.6 6.7 7.1 74 2.2 NE 22 32 12 17 1024.8 1024.8 0.0
30/07:30am 11.2 6.2 7.9 80 1.6 ENE 24 32 13 17 1024.7 1024.7 0.0
30/07:00am 11.0 5.5 7.7 80 1.6 ENE 26 32 14 17 1024.7 1024.7 0.0
30/06:30am 10.7 5.0 6.5 75 2.0 ENE 26 32 14 17 1024.4 1024.4 0.0
30/06:00am 10.7 4.9 6.1 73 2.1 ENE 26 32 14 17 1024.4 1024.4 0.0
30/05:30am 10.8 4.5 5.6 70 2.4 ENE 28 35 15 19 1024.5 1024.5 0.0
30/05:00am 10.8 4.9 5.8 71 2.3 ENE 26 32 14 17 1024.7 1024.7 0.0
30/04:30am 10.9 5.0 5.7 70 2.4 ENE 26 33 14 18 1024.7 1024.7 0.0
30/04:00am 11.0 4.7 5.7 70 2.5 ENE 28 33 15 18 1024.7 1024.7 0.0
30/03:30am 10.8 4.8 5.1 68 2.6 ENE 26 30 14 16 1025.0 1025.0 0.0
30/03:00am 10.5 4.1 5.3 70 2.4 ENE 28 33 15 18 1025.2 1025.2 0.0
30/02:30am 10.3 3.8 4.5 67 2.6 ENE 28 33 15 18 1025.4 1025.4 0.0
30/02:00am 9.8 4.0 4.4 69 2.4 E 24 30 13 16 1025.8 1025.8 0.0
30/01:30am 9.6 3.6 3.4 65 2.7 E 24 28 13 15 1026.2 1026.2 0.0
30/01:00am 9.4 4.1 3.2 65 2.7 ESE 20 24 11 13 1026.6 1026.6 0.0
30/12:30am 9.4 3.2 2.0 60 3.1 ESE 24 30 13 16 1026.8 1026.8 0.0
30/12:00am 9.6 3.1 2.5 61 3.0 ESE 26 33 14 18 1027.0 1027.0 0.0
 
Date/Time
CST
Temp
°C
App
Temp
°C
Dew
Point
Rel
Hum
%
Delta-T
°C
Wind Press
QNH
hPa
Press
MSL
hPa
Rain
since 9 am
mm
Dir
 
Spd
km/h
Gust
km/h
Spd
kts
Gust
kts
29/11:30pm 9.6 2.7 2.7 62 2.9 ESE 28 39 15 21 1027.1 1027.1 0.0
29/11:00pm 9.6 2.4 3.1 64 2.8 ESE 30 35 16 19 1027.3 1027.3 0.0
29/10:30pm 9.7 2.0 3.2 64 2.8 ESE 33 41 18 22 1027.4 1027.4 0.0
29/10:00pm 10.1 2.6 4.5 68 2.5 ESE 33 43 18 23 1027.6 1027.6 0.0
29/09:30pm 10.4 2.5 4.3 66 2.7 ESE 35 43 19 23 1027.8 1027.8 0.0
29/09:00pm 10.5 2.7 4.9 68 2.5 ESE 35 46 19 25 1027.6 1027.6 0.0
29/08:30pm 10.8 3.0 5.1 68 2.6 E 35 44 19 24 1027.4 1027.4 0.0
29/08:00pm 11.1 4.1 5.8 70 2.5 E 32 43 17 23 1027.4 1027.4 0.0
29/07:30pm 11.4 3.8 5.9 69 2.5 E 35 41 19 22 1026.9 1026.9 0.0
29/07:00pm 11.5 4.4 6.2 70 2.5 E 33 43 18 23 1026.7 1026.7 0.0
29/06:30pm 11.5 4.3 5.8 68 2.6 E 33 39 18 21 1026.6 1026.6 0.0
29/06:00pm 11.4 4.4 5.9 69 2.5 E 32 39 17 21 1026.5 1026.5 0.0
29/05:30pm 11.9 4.8 6.6 70 2.5 E 33 39 18 21 1026.3 1026.3 0.0
29/05:00pm 12.2 5.0 6.0 66 2.9 E 33 41 18 22 1026.2 1026.2 0.0
29/04:30pm 12.7 6.0 7.2 69 2.6 E 32 37 17 20 1026.1 1026.1 0.0
29/04:00pm 12.8 6.0 6.8 67 2.9 E 32 39 17 21 1026.2 1026.2 0.0
29/03:30pm 13.2 6.9 7.4 68 2.8 E 30 35 16 19 1026.3 1026.3 0.0
29/03:00pm 13.2 6.5 7.4 68 2.8 E 32 37 17 20 1026.4 1026.4 0.0
29/02:30pm 13.1 6.3 7.1 67 2.9 ENE 32 37 17 20 1026.5 1026.5 0.0
29/02:00pm 13.7 7.1 7.7 67 3.0 E 32 39 17 21 1026.4 1026.4 0.0
29/01:30pm 13.7 7.0 7.5 66 3.0 E 32 37 17 20 1026.7 1026.7 0.0
29/01:00pm 14.1 8.0 8.1 67 3.0 E 30 37 16 20 1027.1 1027.1 0.0
29/12:30pm 14.1 8.2 7.6 65 3.2 ENE 28 32 15 17 1027.6 1027.6 0.0
29/12:00pm 13.4 8.2 8.7 73 2.3 ENE 26 30 14 16 1028.1 1028.1 0.0
29/11:30am 13.5 7.8 8.4 71 2.5 E 28 33 15 18 1028.4 1028.4 0.0
29/11:00am 13.7 9.2 8.7 72 2.5 E 22 28 12 15 1028.4 1028.4 0.0
29/10:30am 13.8 9.5 9.5 75 2.2 E 22 26 12 14 1028.5 1028.5 0.0
29/10:00am 13.0 8.3 9.1 77 2.0 E 24 30 13 16 1028.5 1028.5 0.0
29/09:30am 13.5 9.3 8.4 71 2.5 E 20 24 11 13 1028.5 1028.5 0.0
29/09:00am 13.5 9.4 8.8 73 2.4 E 20 24 11 13 1028.4 1028.4 0.0
29/08:30am 12.7 8.3 8.8 77 1.9 E 22 26 12 14 1028.1 1028.1 0.0
29/08:00am 12.0 8.4 8.3 78 1.8 E 17 20 9 11 1027.9 1027.9 0.0
29/07:30am 11.4 7.8 8.3 81 1.5 ESE 17 20 9 11 1027.6 1027.6 0.0
29/07:00am 11.3 7.7 8.2 81 1.5 E 17 20 9 11 1027.4 1027.4 0.0
29/06:30am 10.8 7.0 7.5 80 1.6 ESE 17 22 9 12 1027.2 1027.2 0.0
29/06:00am 11.0 6.9 7.7 80 1.6 ESE 19 22 10 12 1027.1 1027.1 0.0
29/05:30am 11.2 6.9 7.9 80 1.6 ESE 20 26 11 14 1026.9 1026.9 0.0
29/05:00am 11.5 6.9 8.0 79 1.7 SE 22 28 12 15 1027.0 1027.0 0.0
29/04:30am 11.1 7.7 7.6 79 1.7 E 15 24 8 13 1027.2 1027.2 0.0
29/04:00am 11.9 8.1 7.4 74 2.2 SE 17 24 9 13 1027.1 1027.1 0.0
29/03:30am 11.8 8.6 6.7 71 2.4 ESE 13 15 7 8 1027.2 1027.2 0.0
29/03:00am 11.7 8.5 6.8 72 2.3 ESE 13 15 7 8 1027.5 1027.5 0.0
29/02:30am 11.7 8.2 7.0 73 2.2 E 15 19 8 10 1027.9 1027.9 0.0
29/02:00am 11.8 8.1 6.5 70 2.5 ESE 15 19 8 10 1028.1 1028.1 0.0
29/01:30am 12.1 7.6 5.9 66 2.9 E 19 24 10 13 1028.4 1028.4 0.0
29/01:00am 12.2 7.6 5.4 63 3.2 E 19 22 10 12 1028.4 1028.4 0.0
29/12:30am 12.4 7.7 6.0 65 3.0 ENE 20 26 11 14 1028.3 1028.3 0.0
29/12:00am 12.3 7.6 5.2 62 3.3 E 19 24 10 13 1028.3 1028.3 0.0
 
Date/Time
CST
Temp
°C
App
Temp
°C
Dew
Point
Rel
Hum
%
Delta-T
°C
Wind Press
QNH
hPa
Press
MSL
hPa
Rain
since 9 am
mm
Dir
 
Spd
km/h
Gust
km/h
Spd
kts
Gust
kts
28/11:30pm 12.1 7.2 4.3 59 3.5 E 19 24 10 13 1028.4 1028.4 0.0
28/11:00pm 12.4 7.4 4.6 59 3.6 E 20 26 11 14 1028.5 1028.5 0.0
28/10:30pm 12.5 6.6 4.0 56 3.8 E 24 32 13 17 1028.7 1028.7 0.0
28/10:00pm 12.5 5.6 4.5 58 3.6 E 30 35 16 19 1028.8 1028.8 0.0
28/09:30pm 12.3 7.7 3.8 56 3.8 ESE 17 24 9 13 1028.8 1028.8 0.0
28/09:00pm 12.3 6.9 4.3 58 3.6 E 22 30 12 16 1028.7 1028.7 0.0
28/08:30pm 12.4 7.3 3.9 56 3.8 ESE 20 32 11 17 1028.5 1028.5 0.0
28/08:00pm 12.1 8.9 5.0 62 3.3 ESE 11 13 6 7 1028.3 1028.3 0.0
28/07:30pm 12.0 9.2 5.2 63 3.1 ESE 9 13 5 7 1028.3 1028.3 0.0
28/07:00pm 12.1 9.1 4.3 59 3.5 E 9 11 5 6 1028.2 1028.2 0.0
28/06:30pm 12.2 8.0 3.9 57 3.7 ESE 15 19 8 10 1027.9 1027.9 0.0
28/06:00pm 12.4 8.4 4.9 60 3.4 SE 15 19 8 10 1027.8 1027.8 0.0
28/05:30pm 12.6 9.4 5.1 60 3.4 SE 11 17 6 9 1027.6 1027.6 0.0
28/05:00pm 12.7 9.3 3.9 55 4.0 SE 11 13 6 7 1027.6 1027.6 0.0
28/04:30pm 12.8 9.0 3.7 54 4.1 ESE 13 19 7 10 1027.6 1027.6 0.0
28/04:00pm 12.9 8.3 3.6 53 4.2 ESE 17 20 9 11 1027.6 1027.6 0.0
28/03:30pm 13.3 9.2 4.5 55 4.0 SE 15 19 8 10 1027.7 1027.7 0.0
28/03:00pm 13.8 9.9 5.2 56 4.0 SSE 15 19 8 10 1027.9 1027.9 0.0
28/02:30pm 13.7 9.6 4.6 54 4.2 SE 15 19 8 10 1028.1 1028.1 0.0
28/02:00pm 13.5 9.8 4.6 55 4.1 SE 13 17 7 9 1028.3 1028.3 0.0
28/01:30pm 13.7 10.1 4.8 55 4.1 SE 13 19 7 10 1028.5 1028.5 0.0
28/01:00pm 13.7 9.7 5.1 56 4.0 SE 15 19 8 10 1028.9 1028.9 0.0
28/12:30pm 13.7 9.4 5.1 56 4.0 SE 17 22 9 12 1029.2 1029.2 0.0
28/12:00pm 13.4 9.0 4.8 56 3.9 SE 17 24 9 13 1029.6 1029.6 0.0
28/11:30am 13.2 8.3 5.1 58 3.7 SE 20 24 11 13 1029.8 1029.8 0.0
28/11:00am 13.0 8.3 5.2 59 3.6 SSE 19 24 10 13 1030.0 1030.0 0.0
28/10:30am 13.0 8.6 4.9 58 3.7 SE 17 20 9 11 1030.1 1030.1 0.0
28/10:00am 12.7 7.9 4.9 59 3.6 SE 19 24 10 13 1030.2 1030.2 0.0
28/09:30am 12.6 7.8 5.8 63 3.2 SSE 20 26 11 14 1030.2 1030.2 0.0
28/09:00am 12.3 7.1 5.5 63 3.1 SSE 22 28 12 15 1030.1 1030.1 0.2
28/08:30am 12.2 6.7 6.0 66 2.9 SSE 24 30 13 16 1029.9 1029.9 0.2
28/08:00am 12.0 6.0 5.4 64 3.1 SSE 26 35 14 19 1029.7 1029.7 0.2
28/07:30am 11.9 6.4 6.0 67 2.7 SSE 24 30 13 16 1029.4 1029.4 0.2
28/07:00am 11.8 5.6 6.3 69 2.6 SSE 28 37 15 20 1029.1 1029.1 0.2
28/06:30am 11.7 5.9 6.4 70 2.5 SSE 26 32 14 17 1029.0 1029.0 0.2
28/06:00am 11.8 6.8 6.5 70 2.5 SSE 22 33 12 18 1028.9 1028.9 0.2
28/05:30am 11.5 7.6 3.5 58 3.5 SE 13 17 7 9 1029.0 1029.0 0.2
28/05:00am 11.8 7.1 5.2 64 3.0 SE 19 24 10 13 1029.0 1029.0 0.2
28/04:30am 11.8 7.1 5.2 64 3.0 SE 19 24 10 13 1028.9 1028.9 0.2
28/04:00am 11.7 6.5 5.6 66 2.8 SE 22 26 12 14 1028.8 1028.8 0.2
28/03:30am 11.8 6.9 5.2 64 3.0 SSE 20 24 11 13 1028.8 1028.8 0.2
28/03:00am 11.7 6.8 5.3 65 2.9 SE 20 24 11 13 1029.0 1029.0 0.2
28/02:30am 11.5 7.4 4.3 61 3.2 SE 15 20 8 11 1029.2 1029.2 0.2
28/02:00am 11.8 6.8 4.8 62 3.2 SE 20 26 11 14 1029.2 1029.2 0.2
28/01:30am 11.8 6.9 5.2 64 3.0 SSE 20 24 11 13 1029.2 1029.2 0.2
28/01:00am 11.7 6.8 4.9 63 3.1 SSE 20 28 11 15 1029.3 1029.3 0.2
28/12:30am 11.8 6.1 4.8 62 3.2 S 24 35 13 19 1029.1 1029.1 0.2
28/12:00am 12.0 5.7 5.6 65 3.0 S 28 35 15 19 1028.9 1028.9 0.2
 
Date/Time
CST
Temp
°C
App
Temp
°C
Dew
Point
Rel
Hum
%
Delta-T
°C
Wind Press
QNH
hPa
Press
MSL
hPa
Rain
since 9 am
mm
Dir
 
Spd
km/h
Gust
km/h
Spd
kts
Gust
kts
27/11:30pm 12.0 6.5 5.9 66 2.8 SSE 24 30 13 16 1029.0 1029.0 0.2

Other Formats:

Comma delimited format used in spreadsheet applications
http://www.bom.gov.au/fwo/IDS60801/IDS60801.94804.axf

JavaScript Object Notation format (JSON) in row-major order
http://www.bom.gov.au/fwo/IDS60801/IDS60801.94804.json